Time;durP1;ratioP1;P1;durP2;ratioP2;P2;SDS_P1;SDS_P2;PMS_P1;PMS_P2;Temp;Humidity;BMP_temperature;BMP_pressure;BME280_temperature;BME280_humidity;BME280_pressure;Samples;Min_cycle;Max_cycle;Signal;HPM_P1;HPM_P2
2022/03/21 00:00:45;;;;;;;70.95;62.33;;;;;;;-5.26;100.00;103214.88;5080261;28;20052;-80
2022/03/21 00:03:14;;;;;;;67.10;60.33;;;;;;;-4.71;100.00;103215.91;5086292;28;20052;-80
2022/03/21 00:05:43;;;;;;;64.82;58.28;;;;;;;-4.63;100.00;103204.41;5082762;28;20048;-80
2022/03/21 00:08:11;;;;;;;63.22;56.88;;;;;;;-5.28;100.00;103211.50;5081455;28;20532;-80
2022/03/21 00:10:40;;;;;;;63.33;57.00;;;;;;;-5.11;100.00;103198.91;5079200;28;20461;-80
2022/03/21 00:13:08;;;;;;;62.92;56.92;;;;;;;-5.36;100.00;103198.72;5063853;28;20117;-80
2022/03/21 00:15:35;;;;;;;61.53;55.00;;;;;;;-5.27;100.00;103198.47;5084199;28;20056;-80
2022/03/21 00:18:05;;;;;;;62.72;56.85;;;;;;;-5.43;100.00;103190.28;5075139;28;20044;-81
2022/03/21 00:20:33;;;;;;;66.60;59.55;;;;;;;-5.54;100.00;103194.91;5079371;28;20106;-80
2022/03/21 00:23:00;;;;;;;70.50;62.03;;;;;;;-5.65;100.00;103199.53;5084013;28;20059;-79
2022/03/21 00:25:27;;;;;;;72.63;58.78;;;;;;;-5.59;100.00;103199.38;5077380;28;20063;-80
2022/03/21 00:27:55;;;;;;;69.53;59.63;;;;;;;-5.48;100.00;103194.72;5077180;28;20040;-80
2022/03/21 00:30:22;;;;;;;69.07;61.15;;;;;;;-6.15;100.00;103206.84;5078597;28;20045;-80
2022/03/21 00:32:49;;;;;;;72.88;59.83;;;;;;;-5.72;100.00;103204.00;5081014;28;20122;-80
2022/03/21 00:35:17;;;;;;;76.85;62.50;;;;;;;-5.86;100.00;103213.88;5081744;28;20135;-81
2022/03/21 00:37:46;;;;;;;79.93;61.47;;;;;;;-6.10;100.00;103203.25;5075994;28;20043;-80
2022/03/21 00:40:14;;;;;;;72.15;59.63;;;;;;;-5.98;100.00;103202.13;5079112;28;20465;-79
2022/03/21 00:42:42;;;;;;;70.45;60.38;;;;;;;-6.50;100.00;103199.03;5076464;28;20130;-80
2022/03/21 00:45:12;;;;;;;69.55;60.10;;;;;;;-6.01;100.00;103195.28;5083549;28;20539;-80
2022/03/21 00:47:39;;;;;;;68.35;61.08;;;;;;;-6.00;100.00;103201.28;5082424;28;20049;-80
2022/03/21 00:50:08;;;;;;;69.95;62.45;;;;;;;-6.22;100.00;103195.81;5080427;28;20040;-81
2022/03/21 00:52:41;;;;;;;72.57;64.68;;;;;;;-5.93;100.00;103202.00;5082174;28;20060;-79
2022/03/21 00:55:10;;;;;;;80.50;67.82;;;;;;;-6.89;100.00;103200.75;5080636;28;20048;-80
2022/03/21 00:57:37;;;;;;;72.35;62.05;;;;;;;-6.46;100.00;103195.47;5083045;28;20442;-80
2022/03/21 01:00:06;;;;;;;67.63;58.05;;;;;;;-6.23;100.00;103197.53;5086546;28;20113;-80
2022/03/21 01:02:33;;;;;;;65.35;57.15;;;;;;;-6.48;100.00;103198.97;5073854;28;20109;-80
2022/03/21 01:04:59;;;;;;;63.15;57.13;;;;;;;-6.19;100.00;103194.88;5082978;28;20051;-80
2022/03/21 01:07:26;;;;;;;67.75;60.65;;;;;;;-6.53;100.00;103199.09;5082202;28;20041;-80
2022/03/21 01:09:54;;;;;;;72.13;62.55;;;;;;;-6.23;100.00;103200.13;5079077;28;20101;-80
2022/03/21 01:12:21;;;;;;;96.20;69.93;;;;;;;-6.53;100.00;103191.34;5080762;28;20052;-79
2022/03/21 01:14:48;;;;;;;89.80;70.47;;;;;;;-6.47;100.00;103192.94;5077590;28;20052;-80
2022/03/21 01:17:15;;;;;;;147.82;84.97;;;;;;;-6.46;100.00;103186.88;5079975;28;20048;-80
2022/03/21 01:19:42;;;;;;;96.47;70.03;;;;;;;-6.57;100.00;103187.13;5076409;28;20113;-80
2022/03/21 01:22:09;;;;;;;92.75;71.70;;;;;;;-6.44;100.00;103192.88;5084600;28;20052;-79
2022/03/21 01:24:37;;;;;;;99.07;76.78;;;;;;;-6.56;100.00;103185.41;5088533;28;20481;-80
2022/03/21 01:27:07;;;;;;;93.43;69.30;;;;;;;-6.43;100.00;103191.13;5075802;28;20130;-80
2022/03/21 01:29:34;;;;;;;77.90;63.95;;;;;;;-6.79;100.00;103186.75;5079258;28;20058;-82
2022/03/21 01:32:01;;;;;;;125.28;81.15;;;;;;;-6.71;100.00;103182.25;5085291;28;20113;-80
2022/03/21 01:34:28;;;;;;;110.50;77.53;;;;;;;-6.63;100.00;103186.41;5083387;28;20048;-79
2022/03/21 01:36:55;;;;;;;74.72;64.95;;;;;;;-6.74;100.00;103189.25;5085002;28;20048;-79
2022/03/21 01:39:23;;;;;;;79.38;64.00;;;;;;;-6.75;100.00;103180.63;5080233;28;20079;-80
2022/03/21 01:41:50;;;;;;;74.43;63.50;;;;;;;-7.13;100.00;103178.88;5084903;28;20048;-80
2022/03/21 01:44:20;;;;;;;74.10;66.20;;;;;;;-6.98;100.00;103172.53;5086352;28;20048;-80
2022/03/21 01:46:47;;;;;;;68.97;61.63;;;;;;;-6.86;100.00;103179.16;5086361;28;20045;-79
2022/03/21 01:49:14;;;;;;;65.93;59.17;;;;;;;-7.17;100.00;103182.38;5083170;28;20052;-81
2022/03/21 01:51:42;;;;;;;66.10;59.10;;;;;;;-6.97;100.00;103175.06;5081621;28;20495;-81
2022/03/21 01:56:54;;;;;;;70.68;63.08;;;;;;;-7.28;100.00;103174.00;5084267;28;20450;-78
2022/03/21 01:59:22;;;;;;;73.05;63.60;;;;;;;-7.52;100.00;103171.00;5084081;28;20048;-80
2022/03/21 02:04:16;;;;;;;72.55;60.05;;;;;;;-7.28;100.00;103168.84;5081859;27;20393;-80
2022/03/21 02:06:43;;;;;;;72.47;60.67;;;;;;;-7.31;100.00;103161.16;5076271;28;20117;-80
2022/03/21 02:09:10;;;;;;;74.55;62.08;;;;;;;-7.21;100.00;103173.84;5087642;28;20469;-78
2022/03/21 02:11:38;;;;;;;77.93;64.25;;;;;;;-7.39;100.00;103174.19;5079667;28;20579;-80
2022/03/21 02:14:06;;;;;;;76.80;66.15;;;;;;;-7.33;100.00;103163.75;5080551;28;20052;-79
2022/03/21 02:16:35;;;;;;;82.00;72.85;;;;;;;-7.94;100.00;103175.22;5078491;28;20373;-79
2022/03/21 02:19:07;;;;;;;85.72;70.80;;;;;;;-7.82;100.00;103176.75;5071190;28;20052;-79
2022/03/21 02:21:41;;;;;;;;;;;;;;;-7.34;100.00;103168.97;5078354;28;20519;-80
2022/03/21 02:24:11;;;;;;;87.28;72.50;;;;;;;-7.23;100.00;103174.75;5088833;28;19925;-80
2022/03/21 02:26:39;;;;;;;96.30;72.22;;;;;;;-7.80;100.00;103169.84;5079585;28;20044;-80
2022/03/21 02:29:08;;;;;;;93.03;72.75;;;;;;;-7.29;100.00;103174.88;5080071;28;20451;-79
2022/03/21 02:31:36;;;;;;;104.93;74.40;;;;;;;-7.46;100.00;103178.63;5077132;28;20059;-78
2022/03/21 02:34:03;;;;;;;105.63;79.65;;;;;;;-7.93;100.00;103166.59;5077762;28;20044;-79
2022/03/21 02:36:32;;;;;;;98.15;74.63;;;;;;;-7.64;100.00;103179.84;5085198;28;20127;-80
2022/03/21 02:39:00;;;;;;;87.20;68.85;;;;;;;-7.59;100.00;103174.59;5067665;28;20110;-79
2022/03/21 02:41:27;;;;;;;88.18;72.03;;;;;;;-7.47;100.00;103173.53;5079500;28;20048;-79
2022/03/21 02:43:57;;;;;;;83.32;68.60;;;;;;;-7.40;100.00;103167.34;5076351;28;20044;-82
2022/03/21 02:46:25;;;;;;;91.15;73.88;;;;;;;-7.42;100.00;103169.09;5074616;28;20044;-79
2022/03/21 02:48:53;;;;;;;95.75;73.45;;;;;;;-7.38;100.00;103165.59;5077956;28;20371;-79
2022/03/21 02:51:21;;;;;;;103.50;75.68;;;;;;;-7.47;100.00;103181.28;5077698;28;20471;-80
2022/03/21 02:53:50;;;;;;;117.00;78.53;;;;;;;-7.47;100.00;103169.22;5053407;28;20111;-83
2022/03/21 02:56:17;;;;;;;102.97;72.93;;;;;;;-7.50;100.00;103177.00;5074338;28;20074;-79
2022/03/21 02:58:44;;;;;;;142.60;82.40;;;;;;;-7.67;100.00;103169.56;5081615;28;20111;-79
2022/03/21 03:01:14;;;;;;;142.48;86.68;;;;;;;-7.62;100.00;103165.19;5156659;22;20057;-79
2022/03/21 03:03:41;;;;;;;155.75;91.57;;;;;;;-7.56;100.00;103164.22;5021954;28;20176;-79
2022/03/21 03:06:09;;;;;;;117.78;76.95;;;;;;;-7.93;100.00;103174.34;5018824;28;20053;-78
2022/03/21 03:08:36;;;;;;;133.80;79.80;;;;;;;-7.83;100.00;103170.72;5018634;28;20057;-80
2022/03/21 03:11:03;;;;;;;129.98;82.90;;;;;;;-7.91;100.00;103164.84;5018344;28;20120;-78
2022/03/21 03:13:30;;;;;;;126.88;80.30;;;;;;;-7.90;100.00;103174.28;5016387;28;20054;-79
2022/03/21 03:15:57;;;;;;;130.93;84.63;;;;;;;-7.95;100.00;103178.69;5013583;28;20050;-79
2022/03/21 03:18:26;;;;;;;96.75;75.05;;;;;;;-8.11;100.00;103184.09;5010133;28;20113;-78
2022/03/21 03:20:54;;;;;;;98.03;73.28;;;;;;;-8.11;100.00;103181.53;5002230;28;20046;-79
2022/03/21 03:23:24;;;;;;;102.32;74.88;;;;;;;-8.39;100.00;103170.81;5005694;28;20050;-79
2022/03/21 03:25:56;;;;;;;91.53;71.93;;;;;;;-8.32;100.00;103176.69;5001077;28;20054;-80
2022/03/21 03:28:23;;;;;;;83.05;68.50;;;;;;;-8.30;100.00;103178.38;5008654;28;20050;-79
2022/03/21 03:30:51;;;;;;;84.00;69.35;;;;;;;-8.24;100.00;103172.28;5011639;28;20112;-78
2022/03/21 03:33:18;;;;;;;89.65;73.05;;;;;;;-8.38;100.00;103184.53;5012496;28;20046;-79
2022/03/21 03:35:46;;;;;;;90.82;73.32;;;;;;;-8.38;100.00;103185.41;5006382;28;20454;-80
2022/03/21 03:38:13;;;;;;;87.53;70.07;;;;;;;-8.43;100.00;103183.78;5007720;28;20552;-80
2022/03/21 03:40:40;;;;;;;69.72;62.33;;;;;;;-8.48;100.00;103183.84;5004381;28;20050;-80
2022/03/21 03:43:07;;;;;;;72.25;61.05;;;;;;;-8.02;100.00;103190.81;5006152;28;20046;-78
2022/03/21 03:45:34;;;;;;;73.38;61.65;;;;;;;-8.03;100.00;103189.13;5009758;28;20054;-79
2022/03/21 03:48:01;;;;;;;75.32;66.38;;;;;;;-7.92;100.00;103182.06;5006957;28;20042;-79
2022/03/21 03:50:28;;;;;;;75.80;64.60;;;;;;;-8.09;100.00;103173.75;5007417;28;20054;-79
2022/03/21 03:52:56;;;;;;;74.80;65.65;;;;;;;-8.08;100.00;103180.59;5009349;28;20046;-78
2022/03/21 03:55:23;;;;;;;72.40;64.68;;;;;;;-8.49;100.00;103183.88;5009807;28;20053;-79
2022/03/21 03:57:50;;;;;;;72.28;64.60;;;;;;;-8.03;100.00;103183.13;5005346;28;20132;-79
2022/03/21 04:00:18;;;;;;;68.85;61.13;;;;;;;-8.16;100.00;103182.47;5009710;28;20054;-79
2022/03/21 04:05:31;;;;;;;77.38;64.95;;;;;;;-8.64;100.00;103188.38;5005277;28;20058;-80
2022/03/21 04:07:59;;;;;;;77.78;64.38;;;;;;;-8.39;100.00;103181.13;5002510;28;20470;-79
2022/03/21 04:10:26;;;;;;;75.47;61.67;;;;;;;-8.45;100.00;103176.06;5001803;28;20046;-79
2022/03/21 04:12:53;;;;;;;76.05;60.15;;;;;;;-8.32;100.00;103176.69;5007793;28;20046;-79
2022/03/21 04:15:22;;;;;;;74.53;62.53;;;;;;;-8.33;100.00;103187.88;5007757;28;20464;-79
2022/03/21 04:17:50;;;;;;;70.53;60.22;;;;;;;-8.70;100.00;103182.47;5012146;28;20053;-79
2022/03/21 04:20:17;;;;;;;77.88;64.40;;;;;;;-8.99;100.00;103188.84;5012606;28;20060;-78
2022/03/21 04:22:43;;;;;;;70.22;61.17;;;;;;;-9.07;100.00;103196.69;5004372;28;20458;-78
2022/03/21 04:25:13;;;;;;;65.82;58.72;;;;;;;-8.74;100.00;103196.25;5013008;28;20538;-78
2022/03/21 04:27:40;;;;;;;67.72;59.10;;;;;;;-8.63;100.00;103192.66;5006350;28;20467;-79
2022/03/21 04:30:08;;;;;;;66.95;58.45;;;;;;;-8.67;100.00;103193.56;5005724;28;20109;-79
2022/03/21 04:32:35;;;;;;;70.85;59.50;;;;;;;-8.36;100.00;103201.66;5014965;28;20054;-80
2022/03/21 04:35:02;;;;;;;67.25;60.10;;;;;;;-8.47;100.00;103187.25;5007022;28;20058;-80
2022/03/21 04:37:30;;;;;;;81.05;67.80;;;;;;;-8.64;100.00;103201.25;5007284;28;20151;-78
2022/03/21 04:39:56;;;;;;;97.65;68.80;;;;;;;-8.49;100.00;103196.75;5011924;28;20057;-79
2022/03/21 04:42:24;;;;;;;79.80;64.30;;;;;;;-8.48;100.00;103193.31;5005278;28;20054;-78
2022/03/21 04:44:51;;;;;;;79.93;63.30;;;;;;;-8.65;100.00;103198.69;5005530;28;20039;-79
2022/03/21 04:47:20;;;;;;;66.97;57.88;;;;;;;-8.63;100.00;103202.94;5010895;28;20053;-79
2022/03/21 04:49:47;;;;;;;80.18;63.83;;;;;;;-8.25;100.00;103209.25;5006603;28;20098;-78
2022/03/21 04:52:14;;;;;;;69.22;58.55;;;;;;;-8.18;100.00;103210.00;5003858;28;20054;-79
2022/03/21 04:54:40;;;;;;;119.30;73.57;;;;;;;-8.27;100.00;103212.72;4998281;28;20121;-79
2022/03/21 04:57:08;;;;;;;120.20;75.82;;;;;;;-8.01;100.00;103210.59;5005957;28;20113;-79
2022/03/21 04:59:37;;;;;;;88.50;63.78;;;;;;;-7.88;100.00;103204.34;5006171;28;20474;-79
2022/03/21 05:02:04;;;;;;;76.82;62.05;;;;;;;-7.68;100.00;103206.59;5010611;28;20061;-79
2022/03/21 05:04:31;;;;;;;73.00;61.25;;;;;;;-7.50;100.00;103212.28;5009140;28;20046;-79
2022/03/21 05:06:58;;;;;;;100.65;71.75;;;;;;;-7.69;100.00;103202.28;5005760;28;20145;-78
2022/03/21 05:09:25;;;;;;;85.65;65.95;;;;;;;-7.73;100.00;103213.56;4997792;28;20054;-79
2022/03/21 05:11:52;;;;;;;76.05;63.30;;;;;;;-7.68;100.00;103218.66;5006472;28;20108;-79
2022/03/21 05:14:19;;;;;;;77.90;63.45;;;;;;;-7.56;100.00;103220.13;5004522;28;20109;-79
2022/03/21 05:16:49;;;;;;;169.40;90.35;;;;;;;-7.45;100.00;103218.22;5011393;28;20045;-79
2022/03/21 05:19:16;;;;;;;109.20;72.80;;;;;;;-7.18;100.00;103216.84;5005696;28;20128;-78
2022/03/21 05:21:43;;;;;;;199.75;105.20;;;;;;;-7.05;100.00;103213.16;5006762;28;20111;-78
2022/03/21 05:32:24;;;;;;;149.32;87.05;;;;;;;-6.60;100.00;103222.53;5021459;28;20120;-79
2022/03/21 05:37:35;;;;;;;97.60;66.50;;;;;;;-6.25;100.00;103226.91;5022995;28;20146;-79
2022/03/21 05:42:46;;;;;;;106.63;69.72;;;;;;;-5.87;100.00;103231.16;5026010;28;20048;-79
2022/03/21 05:45:19;;;;;;;85.68;66.22;;;;;;;-5.64;100.00;103235.72;5025645;28;20045;-79
2022/03/21 05:50:35;;;;;;;69.53;61.95;;;;;;;-5.33;100.00;103224.56;4964811;28;20115;-78
2022/03/21 05:53:02;;;;;;;72.40;59.17;;;;;;;-5.04;100.00;103225.50;5019971;28;20453;-77
2022/03/21 05:55:30;;;;;;;229.82;100.63;;;;;;;-5.42;100.00;103222.22;5029434;28;20052;-79
2022/03/21 05:57:57;;;;;;;95.90;68.60;;;;;;;-4.83;100.00;103217.09;5027777;28;20128;-78
2022/03/21 06:00:24;;;;;;;173.75;85.20;;;;;;;-4.47;100.00;103222.09;5027041;28;20119;-79
2022/03/21 06:02:53;;;;;;;71.32;56.72;;;;;;;-4.18;100.00;103223.75;5033222;28;20061;-79
2022/03/21 06:05:21;;;;;;;64.07;56.65;;;;;;;-4.26;100.00;103218.81;5027673;28;20116;-79
2022/03/21 06:07:49;;;;;;;64.65;58.13;;;;;;;-4.15;100.00;103211.53;5035326;28;20057;-78
2022/03/21 06:10:15;;;;;;;66.85;57.78;;;;;;;-4.04;100.00;103213.78;5027733;28;20045;-79
2022/03/21 06:12:42;;;;;;;75.22;60.25;;;;;;;-3.53;100.00;103220.72;5023117;28;20057;-78
2022/03/21 06:15:11;;;;;;;101.28;82.05;;;;;;;-3.40;100.00;103207.31;5023510;28;20188;-78
2022/03/21 06:17:39;;;;;;;87.32;78.90;;;;;;;-2.79;100.00;103208.50;5032649;28;20053;-79
2022/03/21 06:20:09;;;;;;;86.70;78.35;;;;;;;-2.61;100.00;103213.91;5022440;28;20479;-79
2022/03/21 06:22:36;;;;;;;90.63;81.93;;;;;;;-2.29;100.00;103210.06;5028354;28;20041;-79
2022/03/21 06:25:04;;;;;;;88.38;79.97;;;;;;;-2.09;100.00;103217.91;5033779;28;20112;-79
2022/03/21 06:27:31;;;;;;;96.07;86.40;;;;;;;-1.70;100.00;103213.69;5028432;28;20054;-79
2022/03/21 06:29:58;;;;;;;96.47;86.72;;;;;;;-2.08;100.00;103216.16;5035568;28;20045;-78
2022/03/21 06:32:25;;;;;;;97.38;87.70;;;;;;;-1.62;100.00;103209.84;5024213;28;20046;-77
2022/03/21 06:34:53;;;;;;;97.07;86.97;;;;;;;-1.46;100.00;103217.84;5021749;28;20056;-79
2022/03/21 06:37:21;;;;;;;90.43;81.80;;;;;;;-2.20;100.00;103221.88;5031151;28;20085;-79
2022/03/21 06:39:48;;;;;;;89.63;80.45;;;;;;;-0.68;100.00;103217.88;5018283;28;20128;-78
2022/03/21 06:42:16;;;;;;;92.38;83.60;;;;;;;-0.24;100.00;103215.78;5025853;28;20107;-78
2022/03/21 06:44:44;;;;;;;93.57;84.28;;;;;;;0.19;100.00;103217.13;5016188;28;20073;-79
2022/03/21 06:47:11;;;;;;;90.53;81.82;;;;;;;-0.32;100.00;103213.53;5029617;28;20049;-79
2022/03/21 06:49:38;;;;;;;97.30;87.43;;;;;;;0.19;100.00;103218.88;5030844;28;20065;-79
2022/03/21 06:52:08;;;;;;;98.70;88.88;;;;;;;0.15;100.00;103214.72;5032700;28;20531;-80
2022/03/21 06:54:36;;;;;;;96.70;87.30;;;;;;;0.48;100.00;103214.78;5034787;28;20048;-77
2022/03/21 06:57:03;;;;;;;99.38;89.32;;;;;;;0.62;100.00;103219.31;5035396;28;20119;-79
2022/03/21 06:59:30;;;;;;;101.70;91.75;;;;;;;0.57;100.00;103214.31;5029174;28;20045;-79
2022/03/21 07:01:57;;;;;;;100.95;91.13;;;;;;;1.03;100.00;103208.41;5035378;28;20084;-78
2022/03/21 07:04:25;;;;;;;93.95;85.13;;;;;;;1.21;100.00;103207.44;5034625;28;20127;-79
2022/03/21 07:06:52;;;;;;;93.90;85.00;;;;;;;1.81;100.00;103211.94;5026374;28;20128;-79
2022/03/21 07:09:19;;;;;;;100.00;90.18;;;;;;;2.10;96.01;103219.91;5036050;28;20041;-77
2022/03/21 07:11:48;;;;;;;98.13;88.53;;;;;;;2.44;95.13;103219.59;5035724;28;20057;-79
2022/03/21 07:14:15;;;;;;;99.70;89.90;;;;;;;1.71;91.36;103218.63;5024085;28;20127;-76
2022/03/21 07:16:41;;;;;;;97.97;88.20;;;;;;;2.83;90.33;103212.88;5026090;28;20115;-78
2022/03/21 07:19:08;;;;;;;96.20;86.85;;;;;;;3.58;77.64;103212.56;5028238;28;20060;-79
2022/03/21 07:21:35;;;;;;;98.35;89.10;;;;;;;4.21;70.25;103201.38;5028685;28;20375;-79
2022/03/21 07:24:01;;;;;;;98.13;89.07;;;;;;;4.75;67.54;103203.78;5012538;28;20463;-79
2022/03/21 07:26:28;;;;;;;97.80;89.00;;;;;;;4.88;64.99;103205.56;5030921;28;20371;-78
2022/03/21 07:28:56;;;;;;;101.10;91.13;;;;;;;5.04;62.96;103212.25;5032276;28;20085;-77
2022/03/21 07:31:23;;;;;;;102.90;93.40;;;;;;;5.18;62.39;103213.94;5036099;28;20422;-78
2022/03/21 07:33:50;;;;;;;98.07;88.88;;;;;;;5.62;60.58;103215.13;5034084;28;20045;-78
2022/03/21 07:36:17;;;;;;;100.72;91.32;;;;;;;5.36;61.08;103211.78;5034419;28;20050;-77
2022/03/21 07:38:44;;;;;;;102.57;92.85;;;;;;;5.72;60.94;103205.59;5032023;28;20523;-78
2022/03/21 07:41:10;;;;;;;102.38;92.60;;;;;;;5.64;61.55;103201.84;5030991;28;20046;-79
2022/03/21 07:43:38;;;;;;;101.25;91.97;;;;;;;6.41;61.50;103204.88;5028199;28;20559;-80
2022/03/21 07:48:51;;;;;;;99.47;90.22;;;;;;;6.96;57.12;103203.22;5030954;28;20051;-77
2022/03/21 07:51:18;;;;;;;91.80;82.95;;;;;;;7.12;57.30;103202.84;5032268;28;20457;-77
2022/03/21 07:53:45;;;;;;;98.43;89.35;;;;;;;6.98;55.75;103195.16;5034643;28;20057;-77
2022/03/21 07:56:13;;;;;;;97.05;88.15;;;;;;;7.10;53.49;103184.44;5024896;28;20046;-78
2022/03/21 07:58:40;;;;;;;99.30;90.20;;;;;;;7.76;53.39;103191.47;5037036;28;20072;-80
2022/03/21 08:01:08;;;;;;;101.30;92.00;;;;;;;7.68;52.84;103204.47;5033083;28;20061;-77
2022/03/21 08:03:34;;;;;;;107.60;97.95;;;;;;;7.69;51.92;103198.25;5027103;28;20112;-79
2022/03/21 08:06:02;;;;;;;102.20;93.43;;;;;;;7.69;50.69;103199.09;5035279;28;20053;-78
2022/03/21 08:08:29;;;;;;;100.43;91.57;;;;;;;7.96;50.30;103195.13;5035908;28;20042;-77
2022/03/21 08:10:57;;;;;;;96.82;86.97;;;;;;;7.43;49.15;103195.91;5033686;28;20084;-77
2022/03/21 08:13:25;;;;;;;94.22;85.35;;;;;;;7.52;49.41;103187.22;5032058;28;20474;-78
2022/03/21 08:15:52;;;;;;;95.68;86.85;;;;;;;7.44;50.95;103197.59;5026400;28;20051;-77
2022/03/21 08:18:20;;;;;;;93.00;84.63;;;;;;;7.63;47.56;103189.00;5021759;28;20053;-80
2022/03/21 08:20:47;;;;;;;91.88;83.60;;;;;;;7.88;48.23;103192.25;5031825;28;20483;-80
2022/03/21 08:23:15;;;;;;;88.85;81.22;;;;;;;7.91;48.71;103187.53;5022423;28;20553;-78
2022/03/21 08:25:45;;;;;;;89.65;81.82;;;;;;;8.09;45.07;103190.47;5021941;28;20124;-77
2022/03/21 08:28:12;;;;;;;98.45;89.35;;;;;;;8.45;45.18;103185.69;5023899;28;20053;-80
2022/03/21 08:30:40;;;;;;;96.18;87.47;;;;;;;7.39;44.73;103183.09;5026357;28;20057;-78
2022/03/21 08:33:08;;;;;;;91.95;83.47;;;;;;;8.08;45.70;103178.22;5027399;28;20049;-79
2022/03/21 08:35:37;;;;;;;90.03;81.68;;;;;;;8.46;43.82;103180.25;5025180;28;20050;-78
2022/03/21 08:38:05;;;;;;;90.93;82.72;;;;;;;8.54;44.72;103178.75;5021378;28;20057;-78
2022/03/21 08:40:32;;;;;;;89.55;81.35;;;;;;;9.04;42.78;103176.13;5023324;28;20050;-78
2022/03/21 08:42:59;;;;;;;87.50;79.53;;;;;;;8.80;45.88;103176.47;5027335;28;20088;-79
2022/03/21 08:45:25;;;;;;;91.95;83.03;;;;;;;8.76;43.95;103167.97;5027259;28;20053;-80
2022/03/21 08:47:53;;;;;;;88.80;80.85;;;;;;;8.73;43.66;103170.88;5030501;28;20058;-78
2022/03/21 08:50:21;;;;;;;86.30;78.18;;;;;;;8.76;43.16;103162.66;5028847;28;20424;-78
2022/03/21 08:52:49;;;;;;;90.15;81.90;;;;;;;9.07;43.50;103159.97;5029472;28;20045;-80
2022/03/21 08:55:15;;;;;;;88.47;80.47;;;;;;;10.07;43.17;103162.34;5029769;28;20115;-78
2022/03/21 08:57:42;;;;;;;88.85;80.05;;;;;;;10.29;42.35;103151.41;5034657;28;20103;-80
2022/03/21 09:00:10;;;;;;;94.30;85.55;;;;;;;10.74;43.16;103158.66;5032344;28;20053;-79
2022/03/21 09:02:38;;;;;;;93.93;85.53;;;;;;;10.88;41.68;103148.50;5023904;28;20406;-79
2022/03/21 09:05:05;;;;;;;86.43;78.47;;;;;;;11.20;41.28;103154.19;5029522;28;20103;-79
2022/03/21 09:07:32;;;;;;;87.93;79.85;;;;;;;10.88;38.12;103151.16;5029761;28;20053;-79
2022/03/21 09:10:00;;;;;;;88.97;80.50;;;;;;;11.86;38.37;103158.28;5027681;28;20115;-80
2022/03/21 09:12:27;;;;;;;91.43;83.32;;;;;;;10.86;41.55;103156.63;5033004;28;20061;-79
2022/03/21 09:14:55;;;;;;;85.05;77.22;;;;;;;11.46;40.19;103154.25;5025043;28;20453;-79
2022/03/21 09:17:21;;;;;;;85.70;77.70;;;;;;;12.19;38.34;103152.34;5032684;28;20060;-78
2022/03/21 09:19:48;;;;;;;87.47;79.45;;;;;;;11.90;37.12;103149.00;5032360;28;20080;-80
2022/03/21 09:22:15;;;;;;;87.60;80.10;;;;;;;10.44;38.88;103143.81;5030226;28;20492;-81
2022/03/21 09:24:42;;;;;;;90.68;82.68;;;;;;;11.00;39.30;103144.66;5031881;28;20049;-79
2022/03/21 09:27:10;;;;;;;92.35;84.05;;;;;;;12.02;37.07;103144.25;5034339;28;20053;-79
2022/03/21 09:29:37;;;;;;;85.88;78.40;;;;;;;10.69;37.61;103141.47;5028272;28;20076;-79
2022/03/21 09:32:06;;;;;;;89.18;81.25;;;;;;;11.42;38.37;103141.41;5031602;28;20053;-78
2022/03/21 09:34:39;;;;;;;85.57;78.05;;;;;;;9.97;43.26;103151.75;5030116;28;20049;-79
2022/03/21 09:37:06;;;;;;;84.88;77.85;;;;;;;12.44;36.56;103137.34;5032722;28;20132;-81
2022/03/21 09:39:32;;;;;;;87.07;79.57;;;;;;;10.55;39.94;103137.47;5023408;28;20470;-79
2022/03/21 09:42:01;;;;;;;92.55;84.18;;;;;;;12.22;39.77;103138.69;5032996;28;20054;-79
2022/03/21 09:44:29;;;;;;;94.80;86.22;;;;;;;12.38;36.38;103131.63;5035231;28;20482;-80
2022/03/21 09:48:08;;;;;;;87.40;79.28;;;;;;;10.74;36.78;103120.59;5031773;28;20075;-79
2022/03/21 09:49:47;;;;;;;84.80;77.57;;;;;;;11.78;36.36;103130.72;5034775;28;20054;-78
2022/03/21 09:52:15;;;;;;;84.95;77.85;;;;;;;11.24;38.18;103128.94;5027954;28;20057;-78
2022/03/21 09:54:41;;;;;;;88.53;80.68;;;;;;;11.87;39.71;103125.34;5033832;28;20052;-78
2022/03/21 09:57:08;;;;;;;93.40;85.47;;;;;;;10.60;38.38;103121.09;5026519;28;20134;-79
2022/03/21 09:59:36;;;;;;;90.40;82.18;;;;;;;10.72;40.32;103126.06;5028131;28;20110;-78
2022/03/21 10:02:04;;;;;;;91.43;83.55;;;;;;;12.43;38.31;103127.66;5027942;28;20123;-77
2022/03/21 10:04:31;;;;;;;89.45;81.82;;;;;;;12.37;36.60;103115.78;5026624;28;20462;-79
2022/03/21 10:07:00;;;;;;;90.53;82.18;;;;;;;11.18;37.17;103118.06;5036434;28;20124;-79
2022/03/21 10:09:27;;;;;;;92.45;84.35;;;;;;;11.11;37.40;103117.84;5031716;28;20046;-78
2022/03/21 10:11:55;;;;;;;90.85;83.00;;;;;;;12.01;36.03;103105.31;5031828;28;20042;-77
2022/03/21 10:14:25;;;;;;;87.75;80.13;;;;;;;11.65;37.75;103108.00;5029025;28;20063;-78
2022/03/21 10:16:55;;;;;;;90.00;82.63;;;;;;;11.18;36.66;103102.94;5029995;28;20045;-77
2022/03/21 10:19:22;;;;;;;90.97;83.43;;;;;;;11.40;38.62;103100.81;5034688;28;20049;-78
2022/03/21 10:22:04;;;;;;;89.05;81.47;;;;;;;12.95;38.99;103091.00;5026991;28;20116;-78
2022/03/21 10:24:38;;;;;;;88.15;80.65;;;;;;;13.43;34.67;103091.22;5024530;28;20053;-80
2022/03/21 10:27:07;;;;;;;88.03;80.78;;;;;;;13.27;37.48;103086.72;5034191;28;20041;-78
2022/03/21 10:29:50;;;;;;;91.20;83.60;;;;;;;11.55;38.72;103077.97;5036612;28;20119;-79
2022/03/21 10:32:31;;;;;;;91.38;83.50;;;;;;;11.90;37.01;103077.09;5033046;28;20473;-78
2022/03/21 10:35:01;;;;;;;88.75;81.50;;;;;;;12.89;33.62;103062.31;5034041;28;20124;-77
2022/03/21 10:37:41;;;;;;;90.47;83.28;;;;;;;12.22;38.02;103069.41;5037621;28;20144;-80
2022/03/21 10:40:17;;;;;;;90.13;82.55;;;;;;;12.33;34.29;103059.31;5032992;28;20099;-80
2022/03/21 10:42:50;;;;;;;85.97;78.45;;;;;;;13.03;35.07;103050.97;5038869;28;20042;-78
2022/03/21 10:45:17;;;;;;;87.13;78.43;;;;;;;12.56;34.94;103048.91;5033235;28;20112;-78
2022/03/21 10:47:50;;;;;;;83.88;76.85;;;;;;;11.89;36.42;103048.81;5032128;28;20065;-78
2022/03/21 10:50:27;;;;;;;88.43;81.25;;;;;;;14.07;32.93;103044.06;5036213;28;20088;-78
2022/03/21 10:53:04;;;;;;;87.97;80.30;;;;;;;11.77;37.74;103054.50;5026399;28;20052;-78
2022/03/21 10:55:31;;;;;;;88.38;81.05;;;;;;;12.83;33.45;103041.66;5036069;28;20551;-78
2022/03/21 10:57:58;;;;;;;89.80;82.40;;;;;;;13.49;33.49;103037.16;5032352;28;20115;-78
2022/03/21 11:00:28;;;;;;;87.40;80.10;;;;;;;13.05;35.80;103024.16;5033086;28;20488;-78
2022/03/21 11:03:00;;;;;;;89.28;81.88;;;;;;;14.44;34.94;103022.00;5036114;28;20516;-78
2022/03/21 11:05:29;;;;;;;88.10;80.65;;;;;;;14.54;32.71;103013.78;5031653;28;20056;-80
2022/03/21 11:07:57;;;;;;;86.20;78.90;;;;;;;14.50;30.55;103017.78;5033658;28;20053;-78
2022/03/21 11:10:25;;;;;;;87.70;80.57;;;;;;;13.90;31.75;103016.56;5037201;28;20447;-83
2022/03/21 11:12:52;;;;;;;89.10;81.70;;;;;;;13.20;34.54;103008.31;5037178;28;20041;-78
2022/03/21 11:15:19;;;;;;;88.13;80.75;;;;;;;10.76;37.48;103006.97;5029581;28;20123;-77
2022/03/21 11:17:46;;;;;;;89.50;82.10;;;;;;;12.60;32.64;103012.09;5027417;28;20133;-80
2022/03/21 11:20:15;;;;;;;88.55;80.68;;;;;;;13.04;32.29;102985.97;5035503;28;20108;-78
2022/03/21 11:22:44;;;;;;;86.00;78.75;;;;;;;12.06;34.19;102983.13;5032465;28;20052;-78
2022/03/21 11:25:13;;;;;;;88.15;80.93;;;;;;;12.66;31.83;102976.78;5036563;28;20045;-79
2022/03/21 11:27:53;;;;;;;92.68;84.95;;;;;;;13.39;31.58;102967.13;5038049;28;20056;-79
2022/03/21 11:30:27;;;;;;;89.82;82.25;;;;;;;12.06;37.57;102976.97;5033882;28;20041;-80
2022/03/21 11:33:03;;;;;;;89.70;81.28;;;;;;;12.62;33.07;102962.13;5032759;28;20404;-79
2022/03/21 11:35:32;;;;;;;87.63;80.00;;;;;;;14.58;30.55;102945.56;5031913;28;20133;-78